sensor_id;sensor_type;location;lat;lon;timestamp;P1;durP1;ratioP1;P2;durP2;ratioP2
64597;SDS011;51004;54.692;9.332;2023-05-10T00:00:31;3.78;;;2.38;;
64597;SDS011;51004;54.692;9.332;2023-05-10T00:02:57;8.52;;;3.22;;
64597;SDS011;51004;54.692;9.332;2023-05-10T00:05:23;5.32;;;2.53;;
64597;SDS011;51004;54.692;9.332;2023-05-10T00:07:49;6.63;;;2.70;;
64597;SDS011;51004;54.692;9.332;2023-05-10T00:10:15;4.45;;;2.10;;
64597;SDS011;51004;54.692;9.332;2023-05-10T00:12:41;4.70;;;2.28;;
64597;SDS011;51004;54.692;9.332;2023-05-10T00:15:07;2.90;;;2.30;;
64597;SDS011;51004;54.692;9.332;2023-05-10T00:17:33;6.30;;;2.70;;
64597;SDS011;51004;54.692;9.332;2023-05-10T00:19:59;7.30;;;2.38;;
64597;SDS011;51004;54.692;9.332;2023-05-10T00:22:25;4.10;;;2.33;;
64597;SDS011;51004;54.692;9.332;2023-05-10T00:24:51;6.32;;;2.80;;
64597;SDS011;51004;54.692;9.332;2023-05-10T00:27:17;5.32;;;2.47;;
64597;SDS011;51004;54.692;9.332;2023-05-10T00:29:43;3.75;;;2.38;;
64597;SDS011;51004;54.692;9.332;2023-05-10T00:32:09;4.82;;;2.45;;
64597;SDS011;51004;54.692;9.332;2023-05-10T00:34:35;6.80;;;2.45;;
64597;SDS011;51004;54.692;9.332;2023-05-10T00:37:01;5.25;;;2.88;;
64597;SDS011;51004;54.692;9.332;2023-05-10T00:39:27;3.63;;;2.20;;
64597;SDS011;51004;54.692;9.332;2023-05-10T00:41:53;5.90;;;2.40;;
64597;SDS011;51004;54.692;9.332;2023-05-10T00:44:19;4.22;;;3.05;;
64597;SDS011;51004;54.692;9.332;2023-05-10T00:46:46;4.40;;;2.10;;
64597;SDS011;51004;54.692;9.332;2023-05-10T00:49:12;4.68;;;2.72;;
64597;SDS011;51004;54.692;9.332;2023-05-10T00:51:38;3.95;;;2.38;;
64597;SDS011;51004;54.692;9.332;2023-05-10T00:54:05;3.28;;;2.45;;
64597;SDS011;51004;54.692;9.332;2023-05-10T00:56:31;5.03;;;2.40;;
64597;SDS011;51004;54.692;9.332;2023-05-10T00:58:57;3.65;;;2.42;;
64597;SDS011;51004;54.692;9.332;2023-05-10T01:01:23;6.75;;;2.58;;
64597;SDS011;51004;54.692;9.332;2023-05-10T01:03:50;3.95;;;2.60;;
64597;SDS011;51004;54.692;9.332;2023-05-10T01:06:17;5.82;;;2.50;;
64597;SDS011;51004;54.692;9.332;2023-05-10T01:08:43;5.15;;;2.53;;
64597;SDS011;51004;54.692;9.332;2023-05-10T01:11:09;8.23;;;2.72;;
64597;SDS011;51004;54.692;9.332;2023-05-10T01:13:36;3.42;;;2.45;;
64597;SDS011;51004;54.692;9.332;2023-05-10T01:16:04;4.18;;;2.42;;
64597;SDS011;51004;54.692;9.332;2023-05-10T01:18:31;4.95;;;2.72;;
64597;SDS011;51004;54.692;9.332;2023-05-10T01:21:12;4.95;;;2.42;;
64597;SDS011;51004;54.692;9.332;2023-05-10T01:26:30;4.65;;;2.72;;
64597;SDS011;51004;54.692;9.332;2023-05-10T01:29:10;3.25;;;2.45;;
64597;SDS011;51004;54.692;9.332;2023-05-10T01:34:42;3.53;;;2.38;;
64597;SDS011;51004;54.692;9.332;2023-05-10T01:37:13;5.82;;;2.85;;
64597;SDS011;51004;54.692;9.332;2023-05-10T01:39:45;6.00;;;2.88;;
64597;SDS011;51004;54.692;9.332;2023-05-10T01:42:23;3.75;;;2.30;;
64597;SDS011;51004;54.692;9.332;2023-05-10T01:47:42;3.72;;;2.38;;
64597;SDS011;51004;54.692;9.332;2023-05-10T01:50:10;4.72;;;2.63;;
64597;SDS011;51004;54.692;9.332;2023-05-10T01:52:36;3.25;;;2.50;;
64597;SDS011;51004;54.692;9.332;2023-05-10T01:55:14;4.55;;;2.53;;
64597;SDS011;51004;54.692;9.332;2023-05-10T01:57:42;8.35;;;2.60;;
64597;SDS011;51004;54.692;9.332;2023-05-10T02:00:09;5.22;;;2.58;;
64597;SDS011;51004;54.692;9.332;2023-05-10T02:02:39;3.45;;;2.58;;
64597;SDS011;51004;54.692;9.332;2023-05-10T02:05:07;3.50;;;2.80;;
64597;SDS011;51004;54.692;9.332;2023-05-10T02:07:34;4.57;;;2.63;;
64597;SDS011;51004;54.692;9.332;2023-05-10T02:10:01;6.10;;;3.25;;
64597;SDS011;51004;54.692;9.332;2023-05-10T02:12:28;5.30;;;2.70;;
64597;SDS011;51004;54.692;9.332;2023-05-10T02:14:54;4.80;;;2.80;;
64597;SDS011;51004;54.692;9.332;2023-05-10T02:17:20;4.20;;;3.08;;
64597;SDS011;51004;54.692;9.332;2023-05-10T02:19:47;5.47;;;2.90;;
64597;SDS011;51004;54.692;9.332;2023-05-10T02:22:13;14.43;;;2.97;;
64597;SDS011;51004;54.692;9.332;2023-05-10T02:24:40;5.75;;;2.47;;
64597;SDS011;51004;54.692;9.332;2023-05-10T02:27:06;5.47;;;2.63;;
64597;SDS011;51004;54.692;9.332;2023-05-10T02:29:36;5.50;;;3.17;;
64597;SDS011;51004;54.692;9.332;2023-05-10T02:32:02;8.00;;;3.20;;
64597;SDS011;51004;54.692;9.332;2023-05-10T02:34:29;5.75;;;2.42;;
64597;SDS011;51004;54.692;9.332;2023-05-10T02:36:55;7.25;;;2.83;;
64597;SDS011;51004;54.692;9.332;2023-05-10T02:39:22;9.07;;;2.72;;
64597;SDS011;51004;54.692;9.332;2023-05-10T02:41:48;4.78;;;2.70;;
64597;SDS011;51004;54.692;9.332;2023-05-10T02:44:15;9.15;;;3.17;;
64597;SDS011;51004;54.692;9.332;2023-05-10T02:46:41;6.25;;;2.60;;
64597;SDS011;51004;54.692;9.332;2023-05-10T02:49:08;4.35;;;2.63;;
64597;SDS011;51004;54.692;9.332;2023-05-10T02:51:35;7.93;;;3.50;;
64597;SDS011;51004;54.692;9.332;2023-05-10T02:54:03;6.15;;;2.80;;
64597;SDS011;51004;54.692;9.332;2023-05-10T02:56:33;6.25;;;3.00;;
64597;SDS011;51004;54.692;9.332;2023-05-10T02:59:00;7.70;;;3.60;;
64597;SDS011;51004;54.692;9.332;2023-05-10T03:01:26;5.97;;;2.90;;
64597;SDS011;51004;54.692;9.332;2023-05-10T03:03:52;4.68;;;2.92;;
64597;SDS011;51004;54.692;9.332;2023-05-10T03:06:19;6.97;;;3.15;;
64597;SDS011;51004;54.692;9.332;2023-05-10T03:08:45;5.47;;;3.28;;
64597;SDS011;51004;54.692;9.332;2023-05-10T03:16:35;6.63;;;2.70;;
64597;SDS011;51004;54.692;9.332;2023-05-10T03:19:06;5.10;;;3.13;;
64597;SDS011;51004;54.692;9.332;2023-05-10T03:24:08;6.70;;;3.20;;
64597;SDS011;51004;54.692;9.332;2023-05-10T03:26:36;6.60;;;3.17;;
64597;SDS011;51004;54.692;9.332;2023-05-10T03:29:02;7.32;;;2.95;;
64597;SDS011;51004;54.692;9.332;2023-05-10T03:31:30;5.00;;;3.38;;
64597;SDS011;51004;54.692;9.332;2023-05-10T03:33:56;8.15;;;3.25;;
64597;SDS011;51004;54.692;9.332;2023-05-10T03:36:22;3.45;;;2.78;;
64597;SDS011;51004;54.692;9.332;2023-05-10T03:38:48;5.22;;;3.28;;
64597;SDS011;51004;54.692;9.332;2023-05-10T03:41:14;7.20;;;3.50;;
64597;SDS011;51004;54.692;9.332;2023-05-10T03:43:40;4.22;;;3.45;;
64597;SDS011;51004;54.692;9.332;2023-05-10T03:46:06;5.03;;;3.55;;
64597;SDS011;51004;54.692;9.332;2023-05-10T03:48:32;4.60;;;3.33;;
64597;SDS011;51004;54.692;9.332;2023-05-10T03:50:58;4.80;;;3.10;;
64597;SDS011;51004;54.692;9.332;2023-05-10T03:53:25;5.13;;;3.10;;
64597;SDS011;51004;54.692;9.332;2023-05-10T03:55:51;5.15;;;3.25;;
64597;SDS011;51004;54.692;9.332;2023-05-10T03:58:17;5.55;;;4.20;;
64597;SDS011;51004;54.692;9.332;2023-05-10T04:00:43;4.07;;;3.22;;
64597;SDS011;51004;54.692;9.332;2023-05-10T04:03:10;9.73;;;4.25;;
64597;SDS011;51004;54.692;9.332;2023-05-10T04:05:36;9.75;;;4.35;;
64597;SDS011;51004;54.692;9.332;2023-05-10T04:08:03;5.88;;;3.92;;
64597;SDS011;51004;54.692;9.332;2023-05-10T04:10:29;6.40;;;3.45;;
64597;SDS011;51004;54.692;9.332;2023-05-10T04:12:55;8.00;;;3.83;;
64597;SDS011;51004;54.692;9.332;2023-05-10T04:15:21;6.63;;;3.92;;
64597;SDS011;51004;54.692;9.332;2023-05-10T04:17:47;6.47;;;3.63;;
64597;SDS011;51004;54.692;9.332;2023-05-10T04:20:13;6.10;;;3.35;;
64597;SDS011;51004;54.692;9.332;2023-05-10T04:22:39;9.65;;;3.28;;
64597;SDS011;51004;54.692;9.332;2023-05-10T04:25:06;8.43;;;3.78;;
64597;SDS011;51004;54.692;9.332;2023-05-10T04:27:32;5.43;;;3.70;;
64597;SDS011;51004;54.692;9.332;2023-05-10T04:29:58;6.45;;;3.60;;
64597;SDS011;51004;54.692;9.332;2023-05-10T04:32:24;9.73;;;4.50;;
64597;SDS011;51004;54.692;9.332;2023-05-10T04:34:50;5.78;;;3.78;;
64597;SDS011;51004;54.692;9.332;2023-05-10T04:37:16;6.70;;;3.65;;
64597;SDS011;51004;54.692;9.332;2023-05-10T04:39:42;7.50;;;3.92;;
64597;SDS011;51004;54.692;9.332;2023-05-10T04:42:09;6.50;;;3.45;;
64597;SDS011;51004;54.692;9.332;2023-05-10T04:44:35;6.32;;;3.97;;
64597;SDS011;51004;54.692;9.332;2023-05-10T04:47:04;5.65;;;3.65;;
64597;SDS011;51004;54.692;9.332;2023-05-10T04:49:30;5.88;;;3.60;;
64597;SDS011;51004;54.692;9.332;2023-05-10T04:51:56;5.60;;;3.47;;
64597;SDS011;51004;54.692;9.332;2023-05-10T04:54:22;5.05;;;3.47;;
64597;SDS011;51004;54.692;9.332;2023-05-10T04:56:48;6.68;;;3.35;;
64597;SDS011;51004;54.692;9.332;2023-05-10T04:59:14;5.82;;;3.72;;
64597;SDS011;51004;54.692;9.332;2023-05-10T05:01:40;4.63;;;3.15;;
64597;SDS011;51004;54.692;9.332;2023-05-10T05:04:06;8.40;;;3.88;;
64597;SDS011;51004;54.692;9.332;2023-05-10T05:06:32;4.97;;;3.78;;
64597;SDS011;51004;54.692;9.332;2023-05-10T05:08:58;5.93;;;3.42;;
64597;SDS011;51004;54.692;9.332;2023-05-10T05:11:24;5.70;;;3.47;;
64597;SDS011;51004;54.692;9.332;2023-05-10T05:13:51;9.40;;;3.40;;
64597;SDS011;51004;54.692;9.332;2023-05-10T05:16:17;7.65;;;3.30;;
64597;SDS011;51004;54.692;9.332;2023-05-10T05:18:43;4.95;;;3.42;;
64597;SDS011;51004;54.692;9.332;2023-05-10T05:21:15;6.35;;;3.90;;
64597;SDS011;51004;54.692;9.332;2023-05-10T05:23:42;6.85;;;3.35;;
64597;SDS011;51004;54.692;9.332;2023-05-10T05:26:08;7.82;;;3.38;;
64597;SDS011;51004;54.692;9.332;2023-05-10T05:28:34;7.80;;;3.90;;
64597;SDS011;51004;54.692;9.332;2023-05-10T05:31:02;6.80;;;3.60;;
64597;SDS011;51004;54.692;9.332;2023-05-10T05:33:30;4.80;;;3.40;;
64597;SDS011;51004;54.692;9.332;2023-05-10T05:35:56;5.85;;;3.20;;
64597;SDS011;51004;54.692;9.332;2023-05-10T05:38:22;6.53;;;3.50;;
64597;SDS011;51004;54.692;9.332;2023-05-10T05:40:48;9.68;;;3.25;;
64597;SDS011;51004;54.692;9.332;2023-05-10T05:43:14;5.53;;;3.20;;
64597;SDS011;51004;54.692;9.332;2023-05-10T05:45:40;5.95;;;3.88;;
64597;SDS011;51004;54.692;9.332;2023-05-10T05:48:06;7.57;;;3.72;;
64597;SDS011;51004;54.692;9.332;2023-05-10T05:50:32;6.30;;;3.95;;
64597;SDS011;51004;54.692;9.332;2023-05-10T05:52:58;4.80;;;3.17;;
64597;SDS011;51004;54.692;9.332;2023-05-10T05:55:24;4.40;;;3.28;;
64597;SDS011;51004;54.692;9.332;2023-05-10T05:57:50;4.90;;;3.53;;
64597;SDS011;51004;54.692;9.332;2023-05-10T06:00:17;6.13;;;3.20;;
64597;SDS011;51004;54.692;9.332;2023-05-10T06:02:43;5.90;;;3.97;;
64597;SDS011;51004;54.692;9.332;2023-05-10T06:05:09;5.00;;;3.63;;
64597;SDS011;51004;54.692;9.332;2023-05-10T06:07:35;3.80;;;3.33;;
64597;SDS011;51004;54.692;9.332;2023-05-10T06:10:01;4.40;;;3.20;;
64597;SDS011;51004;54.692;9.332;2023-05-10T06:12:27;6.40;;;3.70;;
64597;SDS011;51004;54.692;9.332;2023-05-10T06:14:53;4.63;;;3.30;;
64597;SDS011;51004;54.692;9.332;2023-05-10T06:17:19;7.60;;;3.95;;
64597;SDS011;51004;54.692;9.332;2023-05-10T06:19:46;6.45;;;3.92;;
64597;SDS011;51004;54.692;9.332;2023-05-10T06:22:12;6.45;;;3.60;;
64597;SDS011;51004;54.692;9.332;2023-05-10T06:24:38;6.10;;;3.33;;
64597;SDS011;51004;54.692;9.332;2023-05-10T06:27:04;6.88;;;3.58;;
64597;SDS011;51004;54.692;9.332;2023-05-10T06:29:31;4.93;;;3.28;;
64597;SDS011;51004;54.692;9.332;2023-05-10T06:31:57;7.50;;;3.80;;
64597;SDS011;51004;54.692;9.332;2023-05-10T06:34:23;6.78;;;3.63;;
64597;SDS011;51004;54.692;9.332;2023-05-10T06:36:49;4.05;;;3.10;;
64597;SDS011;51004;54.692;9.332;2023-05-10T06:39:16;5.72;;;3.67;;
64597;SDS011;51004;54.692;9.332;2023-05-10T06:41:42;7.50;;;3.53;;
64597;SDS011;51004;54.692;9.332;2023-05-10T06:44:08;6.57;;;3.50;;
64597;SDS011;51004;54.692;9.332;2023-05-10T06:46:34;6.03;;;3.75;;
64597;SDS011;51004;54.692;9.332;2023-05-10T06:49:01;6.70;;;3.20;;
64597;SDS011;51004;54.692;9.332;2023-05-10T06:51:27;5.65;;;3.33;;
64597;SDS011;51004;54.692;9.332;2023-05-10T06:53:53;5.65;;;3.42;;
64597;SDS011;51004;54.692;9.332;2023-05-10T06:56:19;4.65;;;2.95;;
64597;SDS011;51004;54.692;9.332;2023-05-10T06:58:46;4.60;;;3.72;;
64597;SDS011;51004;54.692;9.332;2023-05-10T07:01:12;4.75;;;3.53;;
64597;SDS011;51004;54.692;9.332;2023-05-10T07:03:38;5.10;;;3.50;;
64597;SDS011;51004;54.692;9.332;2023-05-10T07:06:04;6.68;;;3.70;;
64597;SDS011;51004;54.692;9.332;2023-05-10T07:08:32;4.00;;;3.60;;
64597;SDS011;51004;54.692;9.332;2023-05-10T07:13:28;7.88;;;3.78;;
64597;SDS011;51004;54.692;9.332;2023-05-10T07:15:54;7.22;;;3.80;;
64597;SDS011;51004;54.692;9.332;2023-05-10T07:18:20;7.32;;;4.03;;
64597;SDS011;51004;54.692;9.332;2023-05-10T07:20:46;7.07;;;3.60;;
64597;SDS011;51004;54.692;9.332;2023-05-10T07:23:12;6.13;;;3.80;;
64597;SDS011;51004;54.692;9.332;2023-05-10T07:25:38;5.72;;;3.30;;
64597;SDS011;51004;54.692;9.332;2023-05-10T07:28:04;4.63;;;3.67;;
64597;SDS011;51004;54.692;9.332;2023-05-10T07:30:30;4.60;;;3.58;;
64597;SDS011;51004;54.692;9.332;2023-05-10T07:32:56;5.68;;;3.58;;
64597;SDS011;51004;54.692;9.332;2023-05-10T07:35:22;6.40;;;3.95;;
64597;SDS011;51004;54.692;9.332;2023-05-10T07:37:48;5.57;;;4.18;;
64597;SDS011;51004;54.692;9.332;2023-05-10T07:40:14;7.38;;;4.35;;
64597;SDS011;51004;54.692;9.332;2023-05-10T07:42:40;8.65;;;4.03;;
64597;SDS011;51004;54.692;9.332;2023-05-10T07:45:06;5.53;;;3.58;;
64597;SDS011;51004;54.692;9.332;2023-05-10T07:47:33;5.10;;;3.80;;
64597;SDS011;51004;54.692;9.332;2023-05-10T07:49:59;4.38;;;3.75;;
64597;SDS011;51004;54.692;9.332;2023-05-10T07:52:24;4.70;;;3.67;;
64597;SDS011;51004;54.692;9.332;2023-05-10T07:54:50;4.60;;;4.00;;
64597;SDS011;51004;54.692;9.332;2023-05-10T07:57:17;4.30;;;3.70;;
64597;SDS011;51004;54.692;9.332;2023-05-10T07:59:43;6.25;;;4.00;;
64597;SDS011;51004;54.692;9.332;2023-05-10T08:02:10;5.63;;;3.67;;
64597;SDS011;51004;54.692;9.332;2023-05-10T08:04:36;7.75;;;3.92;;
64597;SDS011;51004;54.692;9.332;2023-05-10T08:07:02;4.72;;;3.58;;
64597;SDS011;51004;54.692;9.332;2023-05-10T08:09:28;7.20;;;3.90;;
64597;SDS011;51004;54.692;9.332;2023-05-10T08:11:54;7.47;;;4.15;;
64597;SDS011;51004;54.692;9.332;2023-05-10T08:14:20;4.97;;;4.00;;
64597;SDS011;51004;54.692;9.332;2023-05-10T08:16:46;8.00;;;4.00;;
64597;SDS011;51004;54.692;9.332;2023-05-10T08:19:12;5.10;;;3.92;;
64597;SDS011;51004;54.692;9.332;2023-05-10T08:21:38;6.75;;;4.20;;
64597;SDS011;51004;54.692;9.332;2023-05-10T08:24:07;6.60;;;4.20;;
64597;SDS011;51004;54.692;9.332;2023-05-10T08:26:33;6.18;;;3.83;;
64597;SDS011;51004;54.692;9.332;2023-05-10T08:28:59;5.88;;;4.05;;
64597;SDS011;51004;54.692;9.332;2023-05-10T08:31:25;5.03;;;3.75;;
64597;SDS011;51004;54.692;9.332;2023-05-10T08:33:51;6.50;;;4.30;;
64597;SDS011;51004;54.692;9.332;2023-05-10T08:36:17;7.30;;;4.65;;
64597;SDS011;51004;54.692;9.332;2023-05-10T08:38:46;6.38;;;3.85;;
64597;SDS011;51004;54.692;9.332;2023-05-10T08:41:13;5.05;;;4.10;;
64597;SDS011;51004;54.692;9.332;2023-05-10T08:43:39;6.70;;;4.07;;
64597;SDS011;51004;54.692;9.332;2023-05-10T08:46:10;5.18;;;4.20;;
64597;SDS011;51004;54.692;9.332;2023-05-10T08:48:37;6.93;;;4.07;;
64597;SDS011;51004;54.692;9.332;2023-05-10T08:51:04;5.82;;;4.60;;
64597;SDS011;51004;54.692;9.332;2023-05-10T08:53:30;5.60;;;4.18;;
64597;SDS011;51004;54.692;9.332;2023-05-10T08:55:58;8.07;;;4.32;;
64597;SDS011;51004;54.692;9.332;2023-05-10T08:58:25;11.63;;;4.65;;
64597;SDS011;51004;54.692;9.332;2023-05-10T09:00:51;8.45;;;4.35;;
64597;SDS011;51004;54.692;9.332;2023-05-10T09:03:17;6.70;;;4.03;;
64597;SDS011;51004;54.692;9.332;2023-05-10T09:05:43;7.80;;;4.65;;
64597;SDS011;51004;54.692;9.332;2023-05-10T09:08:10;5.50;;;4.07;;
64597;SDS011;51004;54.692;9.332;2023-05-10T09:10:38;8.07;;;4.18;;
64597;SDS011;51004;54.692;9.332;2023-05-10T09:13:04;6.55;;;4.85;;
64597;SDS011;51004;54.692;9.332;2023-05-10T09:15:30;5.90;;;4.38;;
64597;SDS011;51004;54.692;9.332;2023-05-10T09:17:56;4.68;;;4.05;;
64597;SDS011;51004;54.692;9.332;2023-05-10T09:20:24;7.00;;;4.47;;
64597;SDS011;51004;54.692;9.332;2023-05-10T09:22:50;7.07;;;4.63;;
64597;SDS011;51004;54.692;9.332;2023-05-10T09:25:16;7.07;;;4.60;;
64597;SDS011;51004;54.692;9.332;2023-05-10T09:27:47;4.75;;;3.97;;
64597;SDS011;51004;54.692;9.332;2023-05-10T09:30:17;8.40;;;5.10;;
64597;SDS011;51004;54.692;9.332;2023-05-10T09:32:43;8.02;;;4.50;;
64597;SDS011;51004;54.692;9.332;2023-05-10T09:35:10;5.07;;;4.38;;
64597;SDS011;51004;54.692;9.332;2023-05-10T09:37:38;6.35;;;4.75;;
64597;SDS011;51004;54.692;9.332;2023-05-10T09:40:06;7.32;;;4.45;;
64597;SDS011;51004;54.692;9.332;2023-05-10T09:42:34;5.78;;;4.22;;
64597;SDS011;51004;54.692;9.332;2023-05-10T09:45:01;9.95;;;4.63;;
64597;SDS011;51004;54.692;9.332;2023-05-10T09:47:27;7.30;;;4.28;;
64597;SDS011;51004;54.692;9.332;2023-05-10T09:49:53;9.05;;;5.03;;
64597;SDS011;51004;54.692;9.332;2023-05-10T09:52:22;9.38;;;5.35;;
64597;SDS011;51004;54.692;9.332;2023-05-10T09:54:52;6.90;;;4.93;;
64597;SDS011;51004;54.692;9.332;2023-05-10T09:57:22;5.28;;;4.70;;
64597;SDS011;51004;54.692;9.332;2023-05-10T09:59:48;5.75;;;4.80;;
64597;SDS011;51004;54.692;9.332;2023-05-10T10:02:15;6.70;;;4.90;;
64597;SDS011;51004;54.692;9.332;2023-05-10T10:04:42;8.18;;;4.57;;
64597;SDS011;51004;54.692;9.332;2023-05-10T10:07:08;5.00;;;4.38;;
64597;SDS011;51004;54.692;9.332;2023-05-10T10:09:35;8.50;;;5.10;;
64597;SDS011;51004;54.692;9.332;2023-05-10T10:12:01;6.70;;;4.97;;
64597;SDS011;51004;54.692;9.332;2023-05-10T10:14:27;6.90;;;4.70;;
64597;SDS011;51004;54.692;9.332;2023-05-10T10:16:54;7.15;;;4.78;;
64597;SDS011;51004;54.692;9.332;2023-05-10T10:19:20;6.68;;;4.95;;
64597;SDS011;51004;54.692;9.332;2023-05-10T10:21:47;6.68;;;5.10;;
64597;SDS011;51004;54.692;9.332;2023-05-10T10:24:13;8.45;;;4.70;;
64597;SDS011;51004;54.692;9.332;2023-05-10T10:26:39;7.63;;;5.25;;
64597;SDS011;51004;54.692;9.332;2023-05-10T10:29:20;6.05;;;4.82;;
64597;SDS011;51004;54.692;9.332;2023-05-10T10:32:10;7.72;;;5.18;;
64597;SDS011;51004;54.692;9.332;2023-05-10T10:34:33;7.28;;;5.22;;
64597;SDS011;51004;54.692;9.332;2023-05-10T10:37:04;8.55;;;4.88;;
64597;SDS011;51004;54.692;9.332;2023-05-10T10:39:30;7.05;;;5.45;;
64597;SDS011;51004;54.692;9.332;2023-05-10T10:41:57;5.68;;;4.72;;
64597;SDS011;51004;54.692;9.332;2023-05-10T10:49:43;7.95;;;4.85;;
64597;SDS011;51004;54.692;9.332;2023-05-10T10:52:51;7.65;;;5.05;;
64597;SDS011;51004;54.692;9.332;2023-05-10T10:57:26;8.02;;;4.85;;
64597;SDS011;51004;54.692;9.332;2023-05-10T10:59:58;6.45;;;4.60;;
64597;SDS011;51004;54.692;9.332;2023-05-10T11:07:57;6.53;;;4.80;;
64597;SDS011;51004;54.692;9.332;2023-05-10T11:10:24;5.68;;;4.85;;
64597;SDS011;51004;54.692;9.332;2023-05-10T11:13:03;7.35;;;4.70;;
64597;SDS011;51004;54.692;9.332;2023-05-10T11:17:56;6.15;;;4.75;;
64597;SDS011;51004;54.692;9.332;2023-05-10T11:20:22;5.45;;;4.70;;
64597;SDS011;51004;54.692;9.332;2023-05-10T11:22:54;6.97;;;4.95;;
64597;SDS011;51004;54.692;9.332;2023-05-10T11:25:25;5.47;;;4.97;;
64597;SDS011;51004;54.692;9.332;2023-05-10T11:27:56;6.05;;;4.95;;
64597;SDS011;51004;54.692;9.332;2023-05-10T11:30:22;6.15;;;5.32;;
64597;SDS011;51004;54.692;9.332;2023-05-10T11:32:48;10.63;;;5.60;;
64597;SDS011;51004;54.692;9.332;2023-05-10T11:35:15;8.68;;;5.85;;
64597;SDS011;51004;54.692;9.332;2023-05-10T11:37:41;7.03;;;5.22;;
64597;SDS011;51004;54.692;9.332;2023-05-10T11:40:08;6.97;;;5.03;;
64597;SDS011;51004;54.692;9.332;2023-05-10T11:42:38;6.38;;;5.22;;
64597;SDS011;51004;54.692;9.332;2023-05-10T11:45:04;6.40;;;5.38;;
64597;SDS011;51004;54.692;9.332;2023-05-10T11:47:30;6.68;;;5.50;;
64597;SDS011;51004;54.692;9.332;2023-05-10T11:49:56;6.70;;;5.72;;
64597;SDS011;51004;54.692;9.332;2023-05-10T11:52:23;9.88;;;5.90;;
64597;SDS011;51004;54.692;9.332;2023-05-10T11:54:52;9.27;;;5.95;;
64597;SDS011;51004;54.692;9.332;2023-05-10T11:57:19;7.68;;;5.78;;
64597;SDS011;51004;54.692;9.332;2023-05-10T11:59:45;6.78;;;5.88;;
64597;SDS011;51004;54.692;9.332;2023-05-10T12:02:13;8.73;;;6.43;;
64597;SDS011;51004;54.692;9.332;2023-05-10T12:04:39;10.00;;;7.15;;
64597;SDS011;51004;54.692;9.332;2023-05-10T12:07:05;9.75;;;6.43;;
64597;SDS011;51004;54.692;9.332;2023-05-10T12:09:31;12.75;;;7.20;;
64597;SDS011;51004;54.692;9.332;2023-05-10T12:11:57;9.20;;;6.93;;
64597;SDS011;51004;54.692;9.332;2023-05-10T12:14:23;8.30;;;7.05;;
64597;SDS011;51004;54.692;9.332;2023-05-10T12:16:49;11.30;;;7.40;;
64597;SDS011;51004;54.692;9.332;2023-05-10T12:19:19;8.38;;;7.53;;
64597;SDS011;51004;54.692;9.332;2023-05-10T12:21:48;8.07;;;7.20;;
64597;SDS011;51004;54.692;9.332;2023-05-10T12:24:14;8.48;;;7.57;;
64597;SDS011;51004;54.692;9.332;2023-05-10T12:26:45;8.45;;;7.65;;
64597;SDS011;51004;54.692;9.332;2023-05-10T12:29:14;9.73;;;8.18;;
64597;SDS011;51004;54.692;9.332;2023-05-10T12:31:54;10.55;;;8.73;;
64597;SDS011;51004;54.692;9.332;2023-05-10T12:36:50;10.25;;;9.25;;
64597;SDS011;51004;54.692;9.332;2023-05-10T12:39:16;10.63;;;9.52;;
64597;SDS011;51004;54.692;9.332;2023-05-10T12:41:42;10.85;;;8.50;;
64597;SDS011;51004;54.692;9.332;2023-05-10T12:44:08;12.48;;;9.50;;
64597;SDS011;51004;54.692;9.332;2023-05-10T12:46:35;10.82;;;9.73;;
64597;SDS011;51004;54.692;9.332;2023-05-10T12:49:01;12.43;;;10.02;;
64597;SDS011;51004;54.692;9.332;2023-05-10T12:51:27;12.30;;;9.48;;
64597;SDS011;51004;54.692;9.332;2023-05-10T12:53:53;10.88;;;9.27;;
64597;SDS011;51004;54.692;9.332;2023-05-10T12:56:19;14.15;;;9.93;;
64597;SDS011;51004;54.692;9.332;2023-05-10T12:58:45;10.93;;;9.40;;
64597;SDS011;51004;54.692;9.332;2023-05-10T13:01:13;10.55;;;9.00;;
64597;SDS011;51004;54.692;9.332;2023-05-10T13:03:39;10.48;;;9.48;;
64597;SDS011;51004;54.692;9.332;2023-05-10T13:06:05;11.50;;;10.40;;
64597;SDS011;51004;54.692;9.332;2023-05-10T13:08:31;13.63;;;11.18;;
64597;SDS011;51004;54.692;9.332;2023-05-10T13:11:01;11.77;;;9.95;;
64597;SDS011;51004;54.692;9.332;2023-05-10T13:13:28;10.23;;;9.20;;
64597;SDS011;51004;54.692;9.332;2023-05-10T13:15:54;11.25;;;10.15;;
64597;SDS011;51004;54.692;9.332;2023-05-10T13:18:20;10.90;;;9.80;;
64597;SDS011;51004;54.692;9.332;2023-05-10T13:20:46;11.60;;;10.48;;
64597;SDS011;51004;54.692;9.332;2023-05-10T13:23:12;12.10;;;10.82;;
64597;SDS011;51004;54.692;9.332;2023-05-10T13:25:38;14.52;;;11.25;;
64597;SDS011;51004;54.692;9.332;2023-05-10T13:28:04;11.90;;;10.15;;
64597;SDS011;51004;54.692;9.332;2023-05-10T13:30:30;11.20;;;10.20;;
64597;SDS011;51004;54.692;9.332;2023-05-10T13:32:56;12.65;;;11.45;;
64597;SDS011;51004;54.692;9.332;2023-05-10T13:35:22;12.57;;;11.25;;
64597;SDS011;51004;54.692;9.332;2023-05-10T13:37:48;12.48;;;11.18;;
64597;SDS011;51004;54.692;9.332;2023-05-10T13:40:14;12.02;;;10.90;;
64597;SDS011;51004;54.692;9.332;2023-05-10T13:42:40;11.68;;;10.15;;
64597;SDS011;51004;54.692;9.332;2023-05-10T13:45:06;12.52;;;11.23;;
64597;SDS011;51004;54.692;9.332;2023-05-10T13:47:33;13.23;;;12.00;;
64597;SDS011;51004;54.692;9.332;2023-05-10T13:49:59;12.65;;;11.35;;
64597;SDS011;51004;54.692;9.332;2023-05-10T13:52:26;13.00;;;11.80;;
64597;SDS011;51004;54.692;9.332;2023-05-10T13:54:52;13.55;;;11.35;;
64597;SDS011;51004;54.692;9.332;2023-05-10T13:57:23;12.18;;;11.05;;
64597;SDS011;51004;54.692;9.332;2023-05-10T13:59:49;12.60;;;11.38;;
64597;SDS011;51004;54.692;9.332;2023-05-10T14:02:15;12.63;;;11.30;;
64597;SDS011;51004;54.692;9.332;2023-05-10T14:04:41;12.00;;;10.80;;
64597;SDS011;51004;54.692;9.332;2023-05-10T14:07:07;14.07;;;12.68;;
64597;SDS011;51004;54.692;9.332;2023-05-10T14:09:33;13.23;;;11.93;;
64597;SDS011;51004;54.692;9.332;2023-05-10T14:11:59;11.55;;;10.45;;
64597;SDS011;51004;54.692;9.332;2023-05-10T14:14:25;13.85;;;12.55;;
64597;SDS011;51004;54.692;9.332;2023-05-10T14:16:51;13.57;;;12.27;;
64597;SDS011;51004;54.692;9.332;2023-05-10T14:19:17;13.85;;;12.25;;
64597;SDS011;51004;54.692;9.332;2023-05-10T14:21:44;13.70;;;12.40;;
64597;SDS011;51004;54.692;9.332;2023-05-10T14:24:10;15.93;;;12.32;;
64597;SDS011;51004;54.692;9.332;2023-05-10T14:26:36;12.65;;;11.40;;
64597;SDS011;51004;54.692;9.332;2023-05-10T14:29:02;12.85;;;11.50;;
64597;SDS011;51004;54.692;9.332;2023-05-10T14:31:28;13.27;;;11.70;;
64597;SDS011;51004;54.692;9.332;2023-05-10T14:33:55;11.68;;;10.55;;
64597;SDS011;51004;54.692;9.332;2023-05-10T14:36:22;12.65;;;11.48;;
64597;SDS011;51004;54.692;9.332;2023-05-10T14:38:48;12.57;;;11.27;;
64597;SDS011;51004;54.692;9.332;2023-05-10T14:41:15;13.70;;;12.48;;
64597;SDS011;51004;54.692;9.332;2023-05-10T14:43:42;14.60;;;11.98;;
64597;SDS011;51004;54.692;9.332;2023-05-10T14:46:08;13.40;;;11.73;;
64597;SDS011;51004;54.692;9.332;2023-05-10T14:48:34;13.85;;;12.65;;
64597;SDS011;51004;54.692;9.332;2023-05-10T14:51:00;13.43;;;12.02;;
64597;SDS011;51004;54.692;9.332;2023-05-10T14:53:26;25.27;;;12.88;;
64597;SDS011;51004;54.692;9.332;2023-05-10T14:55:52;13.80;;;12.48;;
64597;SDS011;51004;54.692;9.332;2023-05-10T14:58:18;13.05;;;11.65;;
64597;SDS011;51004;54.692;9.332;2023-05-10T15:00:44;13.10;;;11.75;;
64597;SDS011;51004;54.692;9.332;2023-05-10T15:03:11;13.25;;;11.85;;
64597;SDS011;51004;54.692;9.332;2023-05-10T15:05:37;13.93;;;12.55;;
64597;SDS011;51004;54.692;9.332;2023-05-10T15:08:03;13.32;;;12.05;;
64597;SDS011;51004;54.692;9.332;2023-05-10T15:10:30;14.07;;;12.77;;
64597;SDS011;51004;54.692;9.332;2023-05-10T15:12:57;13.85;;;12.55;;
64597;SDS011;51004;54.692;9.332;2023-05-10T15:15:23;13.52;;;12.15;;
64597;SDS011;51004;54.692;9.332;2023-05-10T15:17:49;13.55;;;12.13;;